Westhampton, Virginia
Current Conditions -  °F | °C
As of 8:54 AM on Monday 26 Jan 2015 (Local Time) from KOFP Reporting Station
Haze Haze  
Wind Chill: 39°   Ceiling: 4100
Heat Index: 39°   Visibility: 5mi
Dew Point: 37°   Wind: 0mph
Humidity: 93%   Direction: NA
Pressure: 29.75"   Gusts: NA
Location:  37.5803°N, 77.5202°W
Report Text: KOFP 261354Z AUTO 00000KT 5SM BR OVC041 04/03 A2975 RMK AO2 RAE23 SLP075 P0000 T00390028
Loading
Personal Weather Stations






























Interactive Weather Map New forecast layout! Learn more

10-Day Weather Forecast

Advertisements
Track Severe Weather on mobile